Fecha, hora, temperatura, viento dirección y velocidad, humedad y presión.

  • 19-03-2019 23:00:00 | 8.20°C | Sur |4.00 km/h | 92.00% | 1017.30 hPa
  • 19-03-2019 22:00:00 | 8.70°C | Sur |5.00 km/h | 92.00% | 1017.10 hPa
  • 19-03-2019 21:00:00 | 8.80°C | Sudeste |3.00 km/h | 90.00% | 1016.80 hPa
  • 19-03-2019 20:00:00 | 9.10°C | Este |3.00 km/h | 88.00% | 1016.40 hPa
  • 19-03-2019 19:00:00 | 11.10°C | Sudeste |8.00 km/h | 81.00% | 1016.10 hPa
  • 19-03-2019 18:00:00 | 12.10°C | Nordeste |5.00 km/h | 73.00% | 1015.60 hPa
  • 19-03-2019 17:00:00 | 11.50°C | Norte |8.00 km/h | 77.00% | 1015.60 hPa
  • 19-03-2019 16:00:00 | 11.30°C | Nordeste |4.00 km/h | 82.00% | 1015.60 hPa
  • 19-03-2019 15:00:00 | 11.00°C | Noroeste |6.00 km/h | 88.00% | 1015.60 hPa
  • 19-03-2019 14:00:00 | 12.60°C | Oeste |10.00 km/h | 79.00% | 1015.90 hPa
  • 19-03-2019 13:00:00 | 11.60°C | Oeste |8.00 km/h | 80.00% | 1016.00 hPa
  • 19-03-2019 12:00:00 | 11.50°C | Oeste |8.00 km/h | 83.00% | 1016.00 hPa
  • 19-03-2019 11:00:00 | 9.90°C | Sudoeste |9.00 km/h | 89.00% | 1015.90 hPa
  • 19-03-2019 10:00:00 | 8.60°C | Sudoeste |7.00 km/h | 95.00% | 1015.70 hPa
  • 19-03-2019 09:00:00 | 7.90°C | Sudoeste |9.00 km/h | 96.00% | 1015.30 hPa
  • 19-03-2019 08:00:00 | 7.90°C | Sur |5.00 km/h | 95.00% | 1014.90 hPa
  • 19-03-2019 07:00:00 | 7.80°C | Oeste |4.00 km/h | 96.00% | 1014.70 hPa
  • 19-03-2019 06:00:00 | 7.40°C | Sudoeste |8.00 km/h | 94.00% | 1014.40 hPa
  • 19-03-2019 05:00:00 | 7.60°C | Sudoeste |9.00 km/h | 91.00% | 1014.30 hPa
  • 19-03-2019 04:00:00 | 7.70°C | Sudoeste |8.00 km/h | 89.00% | 1014.30 hPa
  • 19-03-2019 03:00:00 | 7.80°C | Sudoeste |2.00 km/h | 85.00% | 1015.00 hPa
  • 19-03-2019 02:00:00 | 8.00°C | Sudoeste |7.00 km/h | 84.00% | 1015.30 hPa
  • 19-03-2019 01:00:00 | 8.20°C | Sudoeste |3.00 km/h | 81.00% | 1015.50 hPa
  • 19-03-2019 00:00:00 | 8.20°C | Sudoeste |4.00 km/h | 82.00% | 1015.50 hPa
    • diseño web asturias Información sobre el estado de las mareas, altura de la marejada, temperatura del agua y otros datos de Gijón en Asturias.

      Surf Gijón